Time;durP1;ratioP1;P1;durP2;ratioP2;P2;SDS_P1;SDS_P2;PMS_P1;PMS_P2;Temp;Humidity;BMP_temperature;BMP_pressure;BME280_temperature;BME280_humidity;BME280_pressure;Samples;Min_cycle;Max_cycle;Signal;HPM_P1;HPM_P2
2021/03/19 00:00:54;;;;;;;;;;;;;;;21.81;40.00;102127.59;3088239;28;116480;-56
2021/03/19 00:02:26;;;;;;;;;;;;;;;21.81;40.13;102124.78;3087110;28;115759;-56
2021/03/19 00:03:58;;;;;;;;;;;;;;;21.80;40.23;102135.22;3085227;28;115846;-55
2021/03/19 00:05:29;;;;;;;;;;;;;;;21.81;40.03;102124.78;3110559;27;115906;-55
2021/03/19 00:07:01;;;;;;;;;;;;;;;21.80;40.13;102117.50;3098025;27;116286;-55
2021/03/19 00:08:32;;;;;;;;;;;;;;;21.79;39.85;102115.81;3087136;28;116235;-56
2021/03/19 00:10:04;;;;;;;;;;;;;;;21.78;39.98;102119.75;3087513;28;116252;-55
2021/03/19 00:11:36;;;;;;;;;;;;;;;21.78;39.81;102125.38;3088347;28;115780;-55
2021/03/19 00:13:09;;;;;;;;;;;;;;;21.77;39.77;102124.53;3097935;28;116571;-56
2021/03/19 00:14:41;;;;;;;;;;;;;;;21.76;40.27;102122.84;3091089;28;115855;-55
2021/03/19 00:16:12;;;;;;;;;;;;;;;21.76;39.79;102127.66;3087643;28;115763;-55
2021/03/19 00:17:44;;;;;;;;;;;;;;;21.74;39.92;102131.59;3116168;27;116527;-55
2021/03/19 00:19:31;;;;;;;;;;;;;;;21.74;39.89;102148.47;3090548;27;113984;-54
2021/03/19 00:21:04;;;;;;;;;;;;;;;21.74;40.26;102136.38;3095607;28;113893;-57
2021/03/19 00:22:35;;;;;;;;;;;;;;;21.73;40.06;102141.16;3112481;27;113738;-55
2021/03/19 00:24:09;;;;;;;;;;;;;;;21.72;40.26;102150.72;3091426;28;113989;-55
2021/03/19 00:25:40;;;;;;;;;;;;;;;21.72;40.30;102149.88;3087286;28;113744;-54
2021/03/19 00:27:12;;;;;;;;;;;;;;;21.72;40.34;102141.41;3089218;28;113635;-55
2021/03/19 00:28:47;;;;;;;;;;;;;;;21.71;40.06;102146.19;3087475;28;113695;-54
2021/03/19 00:30:23;;;;;;;;;;;;;;;21.70;40.54;102152.97;3113084;27;113960;-55
2021/03/19 00:31:55;;;;;;;;;;;;;;;21.68;40.28;102155.22;3090558;28;113749;-55
2021/03/19 00:33:28;;;;;;;;;;;;;;;21.67;40.11;102136.66;3087757;28;113907;-56
2021/03/19 00:35:00;;;;;;;;;;;;;;;21.68;40.28;102148.75;3087070;28;113842;-55
2021/03/19 00:36:31;;;;;;;;;;;;;;;21.65;40.19;102144.56;3086922;28;113837;-55
2021/03/19 00:38:04;;;;;;;;;;;;;;;21.67;40.47;102155.50;3098764;28;113892;-57
2021/03/19 00:39:36;;;;;;;;;;;;;;;21.66;40.44;102162.28;3110548;27;113771;-58
2021/03/19 00:41:07;;;;;;;;;;;;;;;21.66;40.59;102163.13;3098528;28;113580;-58
2021/03/19 00:42:40;;;;;;;;;;;;;;;21.65;40.51;102158.63;3079546;28;116576;-57
2021/03/19 00:44:12;;;;;;;;;;;;;;;21.64;40.37;102156.94;3097935;28;115062;-55
2021/03/19 00:45:45;;;;;;;;;;;;;;;21.64;40.39;102161.72;3111330;28;114003;-55
2021/03/19 00:47:19;;;;;;;;;;;;;;;21.63;40.80;102162.84;3094529;28;114671;-55
2021/03/19 00:48:52;;;;;;;;;;;;;;;21.62;40.47;102161.19;3087181;28;115526;-55
2021/03/19 00:50:27;;;;;;;;;;;;;;;21.61;40.55;102171.59;3110004;27;116815;-54
2021/03/19 00:52:04;;;;;;;;;;;;;;;21.60;40.42;102163.41;3092928;28;115322;-54
2021/03/19 00:53:35;;;;;;;;;;;;;;;21.59;40.63;102167.34;3110755;27;113997;-54
2021/03/19 00:55:09;;;;;;;;;;;;;;;21.59;40.58;102172.97;3090905;28;114283;-55
2021/03/19 00:56:40;;;;;;;;;;;;;;;21.58;40.56;102172.13;3082596;28;115065;-54
2021/03/19 00:58:12;;;;;;;;;;;;;;;21.55;40.54;102161.47;3086621;28;115195;-55
2021/03/19 00:59:43;;;;;;;;;;;;;;;21.55;40.40;102174.69;3098148;28;115180;-55
2021/03/19 01:01:14;;;;;;;;;;;;;;;21.54;40.54;102165.41;3089111;28;115147;-55
2021/03/19 01:02:46;;;;;;;;;;;;;;;21.52;40.53;102170.47;3090249;28;114785;-55
2021/03/19 01:04:19;;;;;;;;;;;;;;;21.53;40.60;102168.50;3089723;28;115727;-54
2021/03/19 01:05:52;;;;;;;;;;;;;;;21.50;40.64;102181.16;3086471;28;114550;-55
2021/03/19 01:07:31;;;;;;;;;;;;;;;21.51;40.78;102173.56;3088670;28;115090;-55
2021/03/19 01:09:06;;;;;;;;;;;;;;;21.50;40.60;102171.88;3103425;27;116384;-54
2021/03/19 01:10:46;;;;;;;;;;;;;;;21.47;40.63;102176.13;3089598;28;114718;-55
2021/03/19 01:12:21;;;;;;;;;;;;;;;21.47;40.75;102176.13;3087396;28;116110;-56
2021/03/19 01:13:54;;;;;;;;;;;;;;;21.46;40.75;102168.81;3087280;28;114381;-58
2021/03/19 01:15:27;;;;;;;;;;;;;;;21.44;40.74;102173.03;3091414;28;114868;-58
2021/03/19 01:17:02;;;;;;;;;;;;;;;21.43;40.95;102172.19;3106215;28;115235;-58
2021/03/19 01:18:35;;;;;;;;;;;;;;;21.43;40.51;102174.16;3099209;28;115105;-58
2021/03/19 01:20:18;;;;;;;;;;;;;;;21.42;40.67;102178.09;3087779;28;115041;-59
2021/03/19 01:21:53;;;;;;;;;;;;;;;21.39;40.75;102173.03;3087267;28;114529;-57
2021/03/19 01:23:26;;;;;;;;;;;;;;;21.37;41.15;102167.69;3096477;28;114718;-57
2021/03/19 01:24:59;;;;;;;;;;;;;;;21.36;40.91;102166.00;3088421;28;114494;-58
2021/03/19 01:26:35;;;;;;;;;;;;;;;21.36;40.87;102171.63;3086001;28;113704;-59
2021/03/19 01:28:15;;;;;;;;;;;;;;;21.34;41.14;102173.91;3109936;27;114126;-55
2021/03/19 01:30:04;;;;;;;;;;;;;;;21.32;41.12;102173.31;3086203;28;114074;-58
2021/03/19 01:31:39;;;;;;;;;;;;;;;21.29;41.18;102168.28;3082199;28;113983;-58
2021/03/19 01:33:15;;;;;;;;;;;;;;;21.27;41.21;102164.91;3110426;27;114327;-54
2021/03/19 01:34:48;;;;;;;;;;;;;;;21.27;41.27;102162.09;3091833;27;113795;-55
2021/03/19 01:36:20;;;;;;;;;;;;;;;21.26;41.13;102163.22;3088843;28;114482;-55
2021/03/19 01:37:53;;;;;;;;;;;;;;;21.24;41.44;102163.50;3091227;28;114012;-55
2021/03/19 01:39:28;;;;;;;;;;;;;;;21.24;41.25;102165.47;3086855;28;113771;-54
2021/03/19 01:41:04;;;;;;;;;;;;;;;21.23;41.14;102169.41;3086298;28;113829;-56
2021/03/19 01:42:40;;;;;;;;;;;;;;;21.21;41.37;102180.09;3086980;28;113971;-55
2021/03/19 01:44:16;;;;;;;;;;;;;;;21.22;41.22;102176.16;3097499;28;114076;-54
2021/03/19 01:45:58;;;;;;;;;;;;;;;21.21;41.54;102178.13;3108738;27;113839;-54
2021/03/19 01:47:45;;;;;;;;;;;;;;;21.19;41.67;102180.38;3102408;28;113933;-55
2021/03/19 01:49:30;;;;;;;;;;;;;;;21.18;41.57;102175.03;3108979;28;114274;-56
2021/03/19 01:51:14;;;;;;;;;;;;;;;21.16;41.64;102177.31;3089174;28;115113;-54
2021/03/19 01:53:00;;;;;;;;;;;;;;;21.15;41.51;102176.44;3078973;28;114432;-55
2021/03/19 01:54:44;;;;;;;;;;;;;;;21.14;41.80;102169.13;3086767;28;114525;-56
2021/03/19 01:56:27;;;;;;;;;;;;;;;21.12;41.94;102167.72;3109911;27;114272;-55
2021/03/19 01:58:09;;;;;;;;;;;;;;;21.11;41.69;102157.59;3090987;27;116321;-55
2021/03/19 01:59:51;;;;;;;;;;;;;;;21.09;42.00;102166.31;3110054;27;114263;-56
2021/03/19 02:01:35;;;;;;;;;;;;;;;21.09;41.73;102168.25;3090317;28;114326;-56
2021/03/19 02:03:21;;;;;;;;;;;;;;;21.09;41.68;102159.84;3087095;28;114016;-55
2021/03/19 02:05:05;;;;;;;;;;;;;;;21.08;41.79;102160.94;3085972;28;114193;-55
2021/03/19 02:06:47;;;;;;;;;;;;;;;21.07;41.91;102157.31;3082863;28;114049;-55
2021/03/19 02:08:28;;;;;;;;;;;;;;;21.07;41.84;102162.09;3086906;28;116117;-56
2021/03/19 02:10:12;;;;;;;;;;;;;;;21.05;41.98;102155.91;3086285;28;115213;-55
2021/03/19 02:11:54;;;;;;;;;;;;;;;21.06;41.94;102152.81;3117752;27;115992;-55
2021/03/19 02:13:39;;;;;;;;;;;;;;;21.04;41.95;102159.84;3096734;27;114587;-54
2021/03/19 02:15:24;;;;;;;;;;;;;;;21.04;42.07;102162.66;3087022;28;114717;-55
2021/03/19 02:17:18;;;;;;;;;;;;;;;21.03;42.17;102142.13;3089648;28;115804;-54
2021/03/19 02:19:03;;;;;;;;;;;;;;;21.02;42.09;102153.66;3086299;28;114689;-55
2021/03/19 02:20:51;;;;;;;;;;;;;;;21.01;42.09;102161.25;3088150;28;114823;-57
2021/03/19 02:22:33;;;;;;;;;;;;;;;20.99;42.18;102163.50;3095624;28;115829;-58
2021/03/19 02:24:16;;;;;;;;;;;;;;;20.96;42.31;102169.69;3085062;28;117463;-58
2021/03/19 02:26:02;;;;;;;;;;;;;;;20.94;42.25;102165.50;3108454;27;115799;-58
2021/03/19 02:27:43;;;;;;;;;;;;;;;20.92;42.21;102173.34;3092481;27;117337;-58
2021/03/19 02:29:40;;;;;;;;;;;;;;;20.88;42.42;102167.44;3086249;28;114844;-57
2021/03/19 02:31:41;;;;;;;;;;;;;;;20.87;41.91;102162.94;3099136;28;115072;-55
2021/03/19 02:33:22;;;;;;;;;;;;;;;20.85;42.33;102173.59;3100218;27;114747;-54
2021/03/19 02:35:04;;;;;;;;;;;;;;;20.85;42.25;102174.44;3088662;28;114715;-55
2021/03/19 02:36:46;;;;;;;;;;;;;;;20.84;42.25;102172.78;3111568;28;115145;-54
2021/03/19 02:38:19;;;;;;;;;;;;;;;20.83;42.29;102165.47;3096131;28;115039;-55
2021/03/19 02:39:50;;;;;;;;;;;;;;;20.83;41.98;102170.25;3099374;28;113987;-54
2021/03/19 02:41:22;;;;;;;;;;;;;;;20.80;42.28;102163.22;3092157;28;113776;-56
2021/03/19 02:42:53;;;;;;;;;;;;;;;20.81;42.36;102170.53;3099670;28;114026;-54
2021/03/19 02:44:25;;;;;;;;;;;;;;;20.81;42.53;102173.34;3116168;27;113793;-55
2021/03/19 02:45:56;;;;;;;;;;;;;;;20.81;42.23;102173.34;3085342;28;113783;-54
2021/03/19 02:47:28;;;;;;;;;;;;;;;20.80;42.41;102174.44;3088617;28;113714;-55
2021/03/19 02:48:59;;;;;;;;;;;;;;;20.78;42.29;102176.72;3101093;28;113842;-55
2021/03/19 02:50:30;;;;;;;;;;;;;;;20.74;42.34;102174.75;3078269;28;113890;-56
2021/03/19 02:52:02;;;;;;;;;;;;;;;20.74;42.67;102167.16;3086615;28;113614;-54
2021/03/19 02:53:35;;;;;;;;;;;;;;;20.74;42.85;102177.56;3114751;27;113987;-55
2021/03/19 02:55:08;;;;;;;;;;;;;;;20.74;42.40;102178.41;3103906;28;114264;-56
2021/03/19 02:56:40;;;;;;;;;;;;;;;20.73;42.65;102176.72;3087088;28;113860;-55
2021/03/19 02:58:11;;;;;;;;;;;;;;;20.71;42.64;102178.97;3103275;27;113879;-55
2021/03/19 02:59:42;;;;;;;;;;;;;;;20.71;42.78;102176.16;3090549;28;113798;-55
2021/03/19 03:01:14;;;;;;;;;;;;;;;20.70;42.51;102168.84;3099738;28;115116;-55
2021/03/19 03:02:45;;;;;;;;;;;;;;;20.69;42.76;102167.16;3086981;28;115425;-55
2021/03/19 03:04:18;;;;;;;;;;;;;;;20.69;42.73;102171.94;3088357;28;115295;-58
2021/03/19 03:05:49;;;;;;;;;;;;;;;20.67;42.92;102160.16;3098527;28;115097;-55
2021/03/19 03:07:23;;;;;;;;;;;;;;;20.65;42.49;102168.00;3098152;28;115153;-55
2021/03/19 03:08:54;;;;;;;;;;;;;;;20.66;42.62;102169.69;3090830;28;115429;-55
2021/03/19 03:10:26;;;;;;;;;;;;;;;20.63;42.94;102173.88;3107911;28;114132;-54
2021/03/19 03:11:58;;;;;;;;;;;;;;;20.63;42.88;102173.88;3095158;28;115141;-54
2021/03/19 03:13:30;;;;;;;;;;;;;;;20.65;42.70;102184.84;3106877;28;116101;-55
2021/03/19 03:15:02;;;;;;;;;;;;;;;20.63;42.59;102173.88;3098670;28;114399;-56
2021/03/19 03:16:34;;;;;;;;;;;;;;;20.63;42.93;102170.22;3095181;28;115111;-57
2021/03/19 03:18:06;;;;;;;;;;;;;;;20.62;43.16;102171.38;3088220;28;115732;-58
2021/03/19 03:19:38;;;;;;;;;;;;;;;20.61;42.67;102181.75;3098141;28;115165;-58
2021/03/19 03:21:09;;;;;;;;;;;;;;;20.60;43.00;102182.88;3098703;28;116267;-57
2021/03/19 03:22:41;;;;;;;;;;;;;;;20.60;43.21;102182.03;3100182;28;116042;-58
2021/03/19 03:24:14;;;;;;;;;;;;;;;20.57;42.96;102183.44;3093448;28;115710;-58
2021/03/19 03:25:45;;;;;;;;;;;;;;;20.57;43.27;102180.63;3089510;28;115737;-55
2021/03/19 03:27:17;;;;;;;;;;;;;;;20.57;43.22;102188.22;3087820;28;116288;-56
2021/03/19 03:28:48;;;;;;;;;;;;;;;20.56;43.53;102190.19;3087815;28;115660;-56
2021/03/19 03:30:20;;;;;;;;;;;;;;;20.55;43.45;102182.88;3090302;28;115827;-58
2021/03/19 03:31:53;;;;;;;;;;;;;;;20.55;43.46;102182.88;3088600;28;116513;-57
2021/03/19 03:33:25;;;;;;;;;;;;;;;20.54;43.50;102185.94;3089295;28;116208;-58
2021/03/19 03:34:58;;;;;;;;;;;;;;;20.53;43.53;102192.69;3083085;28;115826;-57
2021/03/19 03:36:29;;;;;;;;;;;;;;;20.52;43.59;102194.66;3088969;28;116947;-59
2021/03/19 03:38:02;;;;;;;;;;;;;;;20.53;43.85;102203.94;3096432;28;116167;-57
2021/03/19 03:39:34;;;;;;;;;;;;;;;20.51;43.59;102206.16;3111345;27;115786;-57
2021/03/19 03:41:08;;;;;;;;;;;;;;;20.50;43.30;102213.75;3102415;28;116322;-58
2021/03/19 03:42:39;;;;;;;;;;;;;;;20.49;43.57;102203.63;3090218;28;115827;-57
2021/03/19 03:44:13;;;;;;;;;;;;;;;20.52;43.39;102208.69;3085581;28;113877;-58
2021/03/19 03:45:45;;;;;;;;;;;;;;;20.50;43.48;102213.75;3108258;28;113679;-57
2021/03/19 03:47:17;;;;;;;;;;;;;;;20.50;43.69;102204.47;3091207;27;113884;-58
2021/03/19 03:48:49;;;;;;;;;;;;;;;20.48;43.62;102207.56;3087618;28;113817;-57
2021/03/19 03:50:22;;;;;;;;;;;;;;;20.49;43.78;102214.03;3088139;28;114102;-57
2021/03/19 03:52:08;;;;;;;;;;;;;;;20.49;43.88;102214.03;3093125;28;113724;-59
2021/03/19 03:53:40;;;;;;;;;;;;;;;20.50;43.67;102210.94;3092905;28;113936;-57
2021/03/19 03:55:12;;;;;;;;;;;;;;;20.49;43.79;102208.41;3092720;28;113689;-58
2021/03/19 03:56:43;;;;;;;;;;;;;;;20.47;43.43;102210.66;3087355;28;113807;-58
2021/03/19 03:58:14;;;;;;;;;;;;;;;20.46;43.59;102215.41;3098548;28;113757;-57
2021/03/19 03:59:46;;;;;;;;;;;;;;;20.45;43.33;102208.09;3086201;28;113897;-57
2021/03/19 04:01:18;;;;;;;;;;;;;;;20.44;43.31;102214.88;3087460;28;113810;-58
2021/03/19 04:02:49;;;;;;;;;;;;;;;20.44;43.71;102214.88;3082077;28;113625;-57
2021/03/19 04:04:21;;;;;;;;;;;;;;;20.43;43.64;102218.78;3088466;28;113738;-54
2021/03/19 04:05:53;;;;;;;;;;;;;;;20.42;44.00;102214.28;3095714;28;113673;-55
2021/03/19 04:07:24;;;;;;;;;;;;;;;20.41;43.76;102219.06;3085957;28;115168;-55
2021/03/19 04:08:55;;;;;;;;;;;;;;;20.44;43.88;102217.69;3086700;28;115070;-55
2021/03/19 04:10:27;;;;;;;;;;;;;;;20.41;43.77;102219.06;3087847;28;115147;-57
2021/03/19 04:11:58;;;;;;;;;;;;;;;20.40;43.86;102228.59;3087480;28;114514;-57
2021/03/19 04:13:30;;;;;;;;;;;;;;;20.40;43.76;102216.50;3086618;28;116896;-57
2021/03/19 04:15:02;;;;;;;;;;;;;;;20.39;43.73;102223.28;3110942;27;115857;-57
2021/03/19 04:16:33;;;;;;;;;;;;;;;20.39;43.76;102220.47;3090647;28;114398;-58
2021/03/19 04:18:06;;;;;;;;;;;;;;;20.39;43.63;102226.09;3107061;27;116807;-58
2021/03/19 04:19:38;;;;;;;;;;;;;;;20.38;43.40;102218.78;3095521;28;115224;-58
2021/03/19 04:21:10;;;;;;;;;;;;;;;20.36;43.60;102224.66;3087936;28;114251;-58
2021/03/19 04:22:43;;;;;;;;;;;;;;;20.34;43.50;102218.50;3096136;28;113960;-57
2021/03/19 04:24:15;;;;;;;;;;;;;;;20.35;43.46;102213.72;3084728;28;114423;-57
2021/03/19 04:25:46;;;;;;;;;;;;;;;20.33;43.34;102228.03;3085997;28;115185;-57
2021/03/19 04:27:19;;;;;;;;;;;;;;;20.33;43.42;102218.75;3091651;28;113790;-58
2021/03/19 04:28:51;;;;;;;;;;;;;;;20.31;43.64;102213.41;3098954;28;116418;-58
2021/03/19 04:30:24;;;;;;;;;;;;;;;20.31;43.51;102221.81;3090110;28;115784;-57
2021/03/19 04:31:56;;;;;;;;;;;;;;;20.29;43.35;102226.84;3095907;28;116362;-57
2021/03/19 04:33:28;;;;;;;;;;;;;;;20.31;43.11;102233.06;3089922;28;116206;-58
2021/03/19 04:34:59;;;;;;;;;;;;;;;20.28;43.23;102230.78;3110682;27;116141;-56
2021/03/19 04:36:42;;;;;;;;;;;;;;;20.28;43.58;102230.78;3093997;28;115877;-56
2021/03/19 04:38:17;;;;;;;;;;;;;;;20.27;43.33;102233.84;3087831;28;116133;-57
2021/03/19 04:39:49;;;;;;;;;;;;;;;20.26;43.38;102232.19;3122521;27;115748;-57
2021/03/19 04:41:20;;;;;;;;;;;;;;;20.24;43.27;102240.88;3089493;28;115702;-58
2021/03/19 04:42:52;;;;;;;;;;;;;;;20.25;43.47;102238.91;3083613;28;114693;-57
2021/03/19 04:44:25;;;;;;;;;;;;;;;20.24;43.23;102252.09;3094327;28;115884;-57
2021/03/19 04:45:56;;;;;;;;;;;;;;;20.24;43.11;102234.41;3110977;27;115848;-57
2021/03/19 04:47:27;;;;;;;;;;;;;;;20.24;43.46;102245.63;3096843;27;114939;-57
2021/03/19 04:48:59;;;;;;;;;;;;;;;20.22;43.44;102243.09;3089412;28;115645;-57
2021/03/19 04:50:31;;;;;;;;;;;;;;;20.23;43.59;102249.56;3086962;28;114631;-58
2021/03/19 04:52:03;;;;;;;;;;;;;;;20.22;43.43;102251.50;3086962;28;113758;-57
2021/03/19 04:53:36;;;;;;;;;;;;;;;20.20;43.81;102248.16;3093002;28;113820;-57
2021/03/19 04:55:08;;;;;;;;;;;;;;;20.19;43.49;102245.59;3109436;27;113846;-57
2021/03/19 04:56:40;;;;;;;;;;;;;;;20.20;43.57;102239.72;3101501;27;113816;-58
2021/03/19 04:58:11;;;;;;;;;;;;;;;20.20;43.42;102255.72;3086877;28;113812;-58
2021/03/19 04:59:43;;;;;;;;;;;;;;;20.18;43.24;102249.53;3087331;28;113883;-57
2021/03/19 05:01:14;;;;;;;;;;;;;;;20.17;43.53;102254.28;3109964;27;113936;-58
2021/03/19 05:02:47;;;;;;;;;;;;;;;20.18;43.31;102253.19;3085769;28;114006;-57
2021/03/19 05:04:18;;;;;;;;;;;;;;;20.17;43.33;102251.47;3098045;28;113838;-55
2021/03/19 05:05:50;;;;;;;;;;;;;;;20.17;43.56;102262.72;3097274;28;113751;-55
2021/03/19 05:07:21;;;;;;;;;;;;;;;20.16;43.20;102265.81;3087462;28;113936;-56
2021/03/19 05:08:52;;;;;;;;;;;;;;;20.15;43.55;102259.34;3083055;28;113921;-55
2021/03/19 05:10:25;;;;;;;;;;;;;;;20.15;43.22;102264.13;3114769;27;113707;-55
2021/03/19 05:11:57;;;;;;;;;;;;;;;20.15;43.37;102264.97;3100169;28;114991;-54
2021/03/19 05:13:28;;;;;;;;;;;;;;;20.14;43.04;102262.41;3090570;28;116934;-55
2021/03/19 05:14:59;;;;;;;;;;;;;;;20.14;43.28;102273.66;3086408;28;115773;-54
2021/03/19 05:16:30;;;;;;;;;;;;;;;20.12;43.21;102279.56;3086631;28;115124;-55
2021/03/19 05:18:02;;;;;;;;;;;;;;;20.11;43.32;102277.00;3087000;28;115197;-55
2021/03/19 05:19:33;;;;;;;;;;;;;;;20.12;43.28;102284.31;3095293;28;115215;-54
2021/03/19 05:21:05;;;;;;;;;;;;;;;20.12;43.13;102278.72;3099305;28;114991;-54
2021/03/19 05:22:37;;;;;;;;;;;;;;;20.11;43.19;102282.63;3120987;27;115115;-55
2021/03/19 05:24:09;;;;;;;;;;;;;;;20.10;43.26;102281.78;3096832;28;115593;-55
2021/03/19 05:25:40;;;;;;;;;;;;;;;20.08;43.25;102280.38;3107066;27;115146;-55
2021/03/19 05:27:11;;;;;;;;;;;;;;;20.07;43.26;102287.94;3094393;28;115147;-55
2021/03/19 05:28:43;;;;;;;;;;;;;;;20.07;43.02;102284.28;3087214;28;114990;-54
2021/03/19 05:30:14;;;;;;;;;;;;;;;20.06;43.21;102285.41;3085648;28;115146;-55
2021/03/19 05:31:46;;;;;;;;;;;;;;;20.10;43.36;102292.16;3113008;27;114987;-55
2021/03/19 05:33:17;;;;;;;;;;;;;;;20.15;43.42;102292.19;3094041;27;114565;-55
2021/03/19 05:34:49;;;;;;;;;;;;;;;20.19;43.49;102298.94;3090988;28;116218;-55
2021/03/19 05:36:22;;;;;;;;;;;;;;;20.21;43.96;102293.91;3091217;28;115872;-55
2021/03/19 05:37:54;;;;;;;;;;;;;;;20.21;43.49;102297.56;3088227;28;115733;-55
2021/03/19 05:39:25;;;;;;;;;;;;;;;20.23;43.47;102295.31;3091926;28;115746;-55
2021/03/19 05:40:57;;;;;;;;;;;;;;;20.28;43.62;102306.56;3110947;28;115701;-56
2021/03/19 05:42:30;;;;;;;;;;;;;;;20.33;43.71;102297.34;3101768;28;115614;-54
2021/03/19 05:44:01;;;;;;;;;;;;;;;20.35;43.55;102300.75;3119808;27;115756;-55
2021/03/19 05:45:33;;;;;;;;;;;;;;;20.36;43.95;102300.44;3079248;28;116271;-55
2021/03/19 05:47:04;;;;;;;;;;;;;;;20.39;44.05;102305.53;3090123;28;115943;-55
2021/03/19 05:48:39;;;;;;;;;;;;;;;20.42;44.18;102309.72;3090627;28;115912;-55
2021/03/19 05:50:20;;;;;;;;;;;;;;;20.46;44.12;102322.09;3117134;27;115707;-55
2021/03/19 05:51:53;;;;;;;;;;;;;;;20.49;44.07;102321.53;3104018;27;115973;-54
2021/03/19 05:53:42;;;;;;;;;;;;;;;20.54;43.79;102324.38;3094040;28;115781;-54
2021/03/19 05:55:15;;;;;;;;;;;;;;;20.58;44.24;102330.31;3086482;28;115750;-55
2021/03/19 05:56:48;;;;;;;;;;;;;;;20.63;44.23;102322.72;3110060;27;113904;-57
2021/03/19 05:58:24;;;;;;;;;;;;;;;20.68;44.34;102328.34;3091703;28;113941;-54
2021/03/19 05:59:58;;;;;;;;;;;;;;;20.74;44.60;102334.84;3107257;28;113800;-55
2021/03/19 06:01:30;;;;;;;;;;;;;;;20.77;44.11;102335.13;3100852;27;113671;-55
2021/03/19 06:03:02;;;;;;;;;;;;;;;20.81;43.66;102336.25;3114501;27;114027;-55
2021/03/19 06:04:33;;;;;;;;;;;;;;;20.85;43.39;102343.00;3083921;28;113845;-56
2021/03/19 06:06:06;;;;;;;;;;;;;;;20.91;43.78;102348.66;3093237;28;113900;-56
2021/03/19 06:07:47;;;;;;;;;;;;;;;20.95;43.42;102346.97;3114731;27;113819;-55
2021/03/19 06:09:28;;;;;;;;;;;;;;;21.00;43.40;102355.41;3092203;28;113972;-55
2021/03/19 06:11:05;;;;;;;;;;;;;;;21.04;43.49;102348.13;3112000;27;113959;-55
2021/03/19 06:12:36;;;;;;;;;;;;;;;21.07;43.60;102359.66;3107041;28;113844;-55
2021/03/19 06:14:15;;;;;;;;;;;;;;;21.12;43.25;102364.44;3094779;28;114034;-55
2021/03/19 06:15:48;;;;;;;;;;;;;;;21.17;42.94;102367.28;3096512;28;114024;-55
2021/03/19 06:17:24;;;;;;;;;;;;;;;21.21;43.37;102368.44;3097706;28;113859;-54
2021/03/19 06:18:57;;;;;;;;;;;;;;;21.26;43.08;102374.03;3091093;28;115136;-55
2021/03/19 06:20:29;;;;;;;;;;;;;;;21.30;42.87;102372.38;3089113;28;115133;-54
2021/03/19 06:22:05;;;;;;;;;;;;;;;21.33;42.92;102374.63;3097407;28;115147;-55
2021/03/19 06:23:41;;;;;;;;;;;;;;;21.37;42.80;102375.75;3089686;28;113840;-55
2021/03/19 06:25:18;;;;;;;;;;;;;;;21.43;42.83;102380.28;3117208;27;115570;-56
2021/03/19 06:26:51;;;;;;;;;;;;;;;21.47;42.73;102377.75;3100933;27;114880;-56
2021/03/19 06:28:28;;;;;;;;;;;;;;;21.50;42.37;102372.38;3091067;28;114524;-55
2021/03/19 06:30:07;;;;;;;;;;;;;;;21.54;42.31;102373.50;3106284;28;116575;-56
2021/03/19 06:31:40;;;;;;;;;;;;;;;21.59;42.32;102373.53;3086348;28;114164;-55
2021/03/19 06:33:15;;;;;;;;;;;;;;;21.63;42.04;102383.06;3090262;28;115031;-57
2021/03/19 06:34:57;;;;;;;;;;;;;;;21.68;42.17;102383.09;3095529;28;115292;-56
2021/03/19 06:36:30;;;;;;;;;;;;;;;21.72;42.50;102378.56;3086464;28;115841;-57
2021/03/19 06:38:11;;;;;;;;;;;;;;;21.76;42.15;102378.03;3095287;28;115055;-55
2021/03/19 06:39:45;;;;;;;;;;;;;;;21.79;42.15;102381.13;3098928;28;114390;-55
2021/03/19 06:41:26;;;;;;;;;;;;;;;21.83;42.05;102384.22;3098003;28;114818;-55
2021/03/19 06:43:07;;;;;;;;;;;;;;;21.87;42.03;102382.50;3095352;28;115720;-55
2021/03/19 06:44:39;;;;;;;;;;;;;;;21.89;41.75;102380.28;3094353;28;115787;-55
2021/03/19 06:46:13;;;;;;;;;;;;;;;21.91;41.64;102373.22;3095039;28;114979;-55
2021/03/19 06:47:50;;;;;;;;;;;;;;;21.95;41.45;102373.53;3093424;28;114596;-56
2021/03/19 06:49:23;;;;;;;;;;;;;;;21.98;41.71;102387.91;3095007;28;115679;-55
2021/03/19 06:50:54;;;;;;;;;;;;;;;22.00;41.46;102391.25;3101832;28;116389;-56
2021/03/19 06:52:29;;;;;;;;;;;;;;;22.03;41.48;102387.03;3090064;28;116092;-55
2021/03/19 06:54:18;;;;;;;;;;;;;;;22.06;41.16;102394.91;3093783;28;115933;-55
2021/03/19 06:55:53;;;;;;;;;;;;;;;22.10;41.62;102398.84;3095128;28;115800;-55
2021/03/19 06:57:26;;;;;;;;;;;;;;;22.13;41.15;102393.47;3094525;28;115728;-56
2021/03/19 06:58:57;;;;;;;;;;;;;;;22.14;41.18;102395.19;3116201;27;114832;-55
2021/03/19 07:00:40;;;;;;;;;;;;;;;22.21;41.33;102394.91;3087514;28;115244;-56
2021/03/19 07:02:21;;;;;;;;;;;;;;;22.24;41.09;102405.59;3094962;28;115801;-56
2021/03/19 07:04:02;;;;;;;;;;;;;;;22.26;41.12;102414.56;3091523;28;113998;-55
2021/03/19 07:05:40;;;;;;;;;;;;;;;22.29;41.23;102416.00;3110272;27;113805;-56
2021/03/19 07:07:18;;;;;;;;;;;;;;;22.30;40.80;102421.34;3103181;27;113915;-56
2021/03/19 07:08:55;;;;;;;;;;;;;;;22.33;40.63;102419.91;3089693;28;113858;-56
2021/03/19 07:10:28;;;;;;;;;;;;;;;22.36;40.79;102411.72;3086612;28;113791;-55
2021/03/19 07:12:07;;;;;;;;;;;;;;;22.39;41.02;102414.00;3111524;27;113977;-55
2021/03/19 07:13:49;;;;;;;;;;;;;;;22.40;40.78;102421.28;3101849;28;113693;-56
2021/03/19 07:15:26;;;;;;;;;;;;;;;22.43;40.75;102426.38;3103441;27;113820;-56
2021/03/19 07:16:58;;;;;;;;;;;;;;;22.46;40.50;102430.59;3091464;27;113794;-56
2021/03/19 07:18:36;;;;;;;;;;;;;;;22.48;40.57;102429.19;3087869;28;114027;-55
2021/03/19 07:20:14;;;;;;;;;;;;;;;22.52;40.82;102444.38;3088542;28;113846;-55
2021/03/19 07:21:49;;;;;;;;;;;;;;;22.55;40.51;102438.16;3111787;27;113767;-55
2021/03/19 07:23:24;;;;;;;;;;;;;;;22.57;40.40;102438.75;3094719;28;113872;-55
2021/03/19 07:25:02;;;;;;;;;;;;;;;22.59;40.25;102442.09;3105242;27;114030;-55
2021/03/19 07:26:35;;;;;;;;;;;;;;;22.61;40.29;102439.84;3097706;28;113693;-55
2021/03/19 07:28:16;;;;;;;;;;;;;;;22.62;39.97;102435.88;3088792;28;114057;-55
2021/03/19 07:29:47;;;;;;;;;;;;;;;22.63;40.39;102446.03;3090906;28;115003;-56
2021/03/19 07:31:28;;;;;;;;;;;;;;;22.66;40.13;102449.41;3101428;28;116654;-56
2021/03/19 07:33:09;;;;;;;;;;;;;;;22.66;40.18;102450.25;3086663;28;114766;-55
2021/03/19 07:34:43;;;;;;;;;;;;;;;22.68;40.10;102449.94;3087120;28;115631;-55
2021/03/19 07:36:24;;;;;;;;;;;;;;;22.68;40.06;102458.41;3115869;27;115038;-56
2021/03/19 07:38:00;;;;;;;;;;;;;;;22.68;39.98;102466.88;3097383;27;115304;-55
2021/03/19 07:39:42;;;;;;;;;;;;;;;22.68;40.09;102462.06;3108639;28;115160;-56
2021/03/19 07:41:26;;;;;;;;;;;;;;;22.70;39.95;102461.84;3092924;28;115037;-56
2021/03/19 07:43:19;;;;;;;;;;;;;;;22.67;39.77;102462.38;3081086;28;114064;-55
2021/03/19 07:45:00;;;;;;;;;;;;;;;22.68;39.87;102472.50;3089713;28;115454;-56
2021/03/19 07:46:37;;;;;;;;;;;;;;;22.69;39.76;102475.03;3081042;28;115282;-57
2021/03/19 07:48:10;;;;;;;;;;;;;;;22.67;39.90;102468.81;3087617;28;114428;-55
2021/03/19 07:49:43;;;;;;;;;;;;;;;22.66;39.82;102470.00;3094408;28;115325;-56
2021/03/19 07:51:23;;;;;;;;;;;;;;;22.59;39.36;102477.88;3087197;28;114807;-54
2021/03/19 07:53:02;;;;;;;;;;;;;;;22.49;38.17;102478.72;3087964;28;115946;-56
2021/03/19 07:54:46;;;;;;;;;;;;;;;22.44;37.48;102478.75;3112087;28;115745;-57
2021/03/19 07:56:28;;;;;;;;;;;;;;;22.35;37.17;102479.63;3094847;27;114360;-56
2021/03/19 07:58:11;;;;;;;;;;;;;;;22.35;36.49;102483.25;3113403;27;115877;-56
2021/03/19 07:59:52;;;;;;;;;;;;;;;22.32;36.24;102485.81;3100144;27;116155;-55
2021/03/19 08:01:31;;;;;;;;;;;;;;;22.29;36.40;102484.41;3091424;28;115913;-56
2021/03/19 08:03:10;;;;;;;;;;;;;;;22.26;36.05;102490.59;3090789;28;115726;-55